Time;durP1;ratioP1;P1;durP2;ratioP2;P2;SDS_P1;SDS_P2;PMS_P1;PMS_P2;Temp;Humidity;BMP_temperature;BMP_pressure;BME280_temperature;BME280_humidity;BME280_pressure;Samples;Min_cycle;Max_cycle;Signal;HPM_P1;HPM_P2
2022/11/30 00:01:51;;;;;;;110.70;53.50;;;;;;;-1.56;89.48;99696.52;86657;1286;22522;-76
2022/11/30 00:03:54;;;;;;;109.40;55.10;;;;;;;-1.55;89.61;99698.61;86348;1288;23880;-75
2022/11/30 00:05:55;;;;;;;103.90;52.10;;;;;;;-1.56;89.43;99699.10;86653;1285;99527;-75
2022/11/30 00:07:59;;;;;;;96.80;48.60;;;;;;;-1.56;89.41;99700.48;86463;1294;24260;-75
2022/11/30 00:10:00;;;;;;;97.00;50.50;;;;;;;-1.57;89.54;99697.54;86556;1310;22628;-75
2022/11/30 00:12:01;;;;;;;81.60;41.30;;;;;;;-1.57;89.48;99699.77;86568;1286;98642;-74
2022/11/30 00:14:02;;;;;;;94.90;47.80;;;;;;;-1.59;89.41;99702.70;86363;1287;22735;-75
2022/11/30 00:16:04;;;;;;;103.20;52.60;;;;;;;-1.60;89.39;99710.60;86639;1285;22485;-76
2022/11/30 00:18:05;;;;;;;92.60;47.20;;;;;;;-1.60;89.42;99708.53;86318;1288;99439;-76
2022/11/30 00:20:08;;;;;;;106.30;52.90;;;;;;;-1.59;89.54;99712.52;86579;1284;23423;-75
2022/11/30 00:22:09;;;;;;;110.90;53.70;;;;;;;-1.59;89.46;99710.61;86452;1295;22671;-75
2022/11/30 00:24:10;;;;;;;99.50;50.70;;;;;;;-1.59;89.35;99712.17;86312;1288;98826;-75
2022/11/30 00:26:14;;;;;;;97.00;47.90;;;;;;;-1.59;89.40;99710.27;86445;1289;22806;-76
2022/11/30 00:28:15;;;;;;;105.40;52.90;;;;;;;-1.60;89.54;99711.98;86709;1278;22522;-76
2022/11/30 00:30:16;;;;;;;112.50;55.50;;;;;;;-1.59;89.50;99711.13;86498;1295;98356;-75
2022/11/30 00:32:17;;;;;;;111.20;54.10;;;;;;;-1.58;89.52;99712.19;86345;1286;22536;-75
2022/11/30 00:34:18;;;;;;;108.40;54.30;;;;;;;-1.56;89.54;99714.61;86742;1284;25463;-75
2022/11/30 00:36:21;;;;;;;104.10;54.40;;;;;;;-1.56;89.54;99714.29;86342;1283;98217;-75
2022/11/30 00:38:23;;;;;;;108.30;50.90;;;;;;;-1.56;89.51;99713.23;86601;1288;25573;-75
2022/11/30 00:40:24;;;;;;;107.60;54.40;;;;;;;-1.59;89.47;99712.02;86520;1284;22513;-76
2022/11/30 00:42:25;;;;;;;86.00;42.10;;;;;;;-1.59;89.52;99714.41;86270;1288;98278;-75
2022/11/30 00:44:27;;;;;;;100.80;46.40;;;;;;;-1.60;89.42;99715.08;86553;1310;22495;-75
2022/11/30 00:46:28;;;;;;;83.10;38.60;;;;;;;-1.62;89.50;99718.85;86250;1286;22606;-75
2022/11/30 00:48:29;;;;;;;89.10;43.30;;;;;;;-1.65;89.41;99720.54;86497;1284;99268;-76
2022/11/30 00:50:30;;;;;;;;;;;;;;;-1.67;89.33;99715.68;86530;1285;22524;-75
2022/11/30 00:52:31;;;;;;;88.50;45.20;;;;;;;-1.68;89.47;99716.35;86475;1292;24254;-75
2022/11/30 00:54:33;;;;;;;93.30;48.40;;;;;;;-1.68;89.43;99710.14;86542;1294;98076;-75
2022/11/30 00:56:34;;;;;;;102.60;50.70;;;;;;;-1.68;89.49;99707.55;86669;1285;22769;-76
2022/11/30 00:58:35;;;;;;;95.50;47.40;;;;;;;-1.67;89.49;99708.27;86680;1284;22519;-75
2022/11/30 01:00:36;;;;;;;101.70;49.20;;;;;;;-1.67;89.39;99705.51;86250;1291;99227;-75
2022/11/30 01:02:37;;;;;;;96.20;47.40;;;;;;;-1.66;89.48;99706.56;86558;1286;22894;-76
2022/11/30 01:04:38;;;;;;;93.10;47.40;;;;;;;-1.66;89.55;99704.16;86617;1288;22488;-74
2022/11/30 01:06:39;;;;;;;90.20;47.10;;;;;;;-1.67;89.56;99703.97;86511;1286;98306;-75
2022/11/30 01:08:42;;;;;;;95.00;44.90;;;;;;;-1.68;89.53;99700.85;86688;1288;24268;-77
2022/11/30 01:10:46;;;;;;;114.00;53.50;;;;;;;-1.67;89.54;99704.65;86468;1290;22806;-76
2022/11/30 01:12:49;;;;;;;91.60;47.70;;;;;;;-1.66;89.55;99704.48;86624;1281;98619;-75
2022/11/30 01:14:51;;;;;;;104.70;50.30;;;;;;;-1.65;89.49;99705.88;86744;1284;22493;-76
2022/11/30 01:16:52;;;;;;;94.80;44.30;;;;;;;-1.66;89.60;99706.39;86551;1288;22509;-75
2022/11/30 01:18:54;;;;;;;100.80;48.30;;;;;;;-1.68;89.56;99705.16;86387;1288;99307;-75
2022/11/30 01:20:55;;;;;;;101.50;48.30;;;;;;;-1.66;89.53;99710.68;86736;1281;23075;-75
2022/11/30 01:22:56;;;;;;;94.30;47.60;;;;;;;-1.65;89.49;99713.10;86615;1288;22488;-76
2022/11/30 01:24:57;;;;;;;99.80;47.50;;;;;;;-1.64;89.58;99710.54;86528;1280;98074;-76
2022/11/30 01:26:58;;;;;;;;;;;;;;;-1.64;89.54;99709.52;86514;1287;22456;-75
2022/11/30 01:28:59;;;;;;;111.00;50.80;;;;;;;-1.64;89.64;99711.77;86651;1287;21894;-75
2022/11/30 01:31:06;;;;;;;106.20;50.50;;;;;;;-1.62;89.55;99711.25;86553;1285;98713;-76
2022/11/30 01:33:07;;;;;;;114.10;53.30;;;;;;;-1.62;89.51;99713.17;86352;1280;22569;-74
2022/11/30 01:35:08;;;;;;;107.10;52.80;;;;;;;-1.61;89.63;99713.52;86367;1289;23209;-76
2022/11/30 01:37:11;;;;;;;100.20;48.50;;;;;;;-1.61;89.52;99713.87;86292;1280;99392;-75
2022/11/30 01:39:12;;;;;;;111.30;53.80;;;;;;;-1.62;89.57;99709.38;86672;1285;22506;-74
2022/11/30 01:41:17;;;;;;;109.70;50.30;;;;;;;-1.63;89.50;99705.23;86388;1280;24359;-75
2022/11/30 01:43:19;;;;;;;96.60;48.60;;;;;;;-1.64;89.49;99704.85;86568;1292;99345;-75
2022/11/30 01:45:20;;;;;;;111.20;50.80;;;;;;;-1.64;89.49;99704.34;86375;1289;22508;-76
2022/11/30 01:47:24;;;;;;;99.80;49.80;;;;;;;-1.64;89.55;99705.20;86415;1280;22923;-76
2022/11/30 01:49:47;;;;;;;91.90;44.10;;;;;;;-1.65;89.63;99703.48;86584;1280;98241;-74
2022/11/30 01:51:54;;;;;;;99.90;49.10;;;;;;;-1.65;89.50;99705.88;86554;1280;22609;-75
2022/11/30 01:53:56;;;;;;;106.10;50.00;;;;;;;-1.69;89.65;99704.29;86721;1279;99401;-76
2022/11/30 01:55:58;;;;;;;97.90;46.70;;;;;;;-1.64;89.61;99713.30;86629;1287;22449;-76
2022/11/30 01:58:08;;;;;;;101.90;49.30;;;;;;;-1.64;89.59;99719.85;86677;1277;22484;-75
2022/11/30 02:00:12;;;;;;;103.70;51.40;;;;;;;-1.65;89.58;99720.35;86610;1286;98651;-75
2022/11/30 02:02:15;;;;;;;105.60;50.00;;;;;;;-1.64;89.52;99722.60;86704;1284;22480;-76
2022/11/30 02:04:29;;;;;;;88.60;42.20;;;;;;;-1.64;89.51;99726.91;86439;1287;22955;-76
2022/11/30 02:06:31;;;;;;;90.80;43.70;;;;;;;-1.64;89.55;99727.77;86674;1286;98136;-75
2022/11/30 02:08:32;;;;;;;83.80;41.60;;;;;;;-1.65;89.56;99729.65;86591;1288;22561;-75
2022/11/30 02:10:38;;;;;;;81.80;38.80;;;;;;;-1.65;89.50;99733.61;86325;1287;297445;-75
2022/11/30 02:13:17;;;;;;;76.80;39.20;;;;;;;-1.70;89.44;99727.02;86806;1285;99763;-75
2022/11/30 02:15:27;;;;;;;82.20;41.80;;;;;;;-1.69;89.50;99734.44;86645;1278;22589;-75
2022/11/30 02:17:52;;;;;;;84.10;40.50;;;;;;;-1.71;89.46;99736.30;86617;1287;22528;-75
2022/11/30 02:20:13;;;;;;;83.90;42.30;;;;;;;-1.72;89.35;99739.90;86578;1288;22566;-75
2022/11/30 02:22:28;;;;;;;91.60;42.00;;;;;;;-1.71;89.55;99737.00;86597;1280;22160;-75
2022/11/30 02:24:38;;;;;;;92.50;45.20;;;;;;;-1.69;89.47;99736.31;86644;1281;98780;-75
2022/11/30 02:26:45;;;;;;;92.70;47.50;;;;;;;-1.68;89.53;99735.30;86633;1286;22493;-75
2022/11/30 02:29:20;;;;;;;84.40;43.40;;;;;;;-1.66;89.66;99738.09;86664;1285;24182;-74
2022/11/30 02:31:27;;;;;;;87.00;46.40;;;;;;;-1.67;89.57;99736.87;86578;1285;99357;-76
2022/11/30 02:33:30;;;;;;;85.50;45.70;;;;;;;-1.68;89.49;99737.54;86670;1294;22493;-75
2022/11/30 02:35:41;;;;;;;95.70;47.00;;;;;;;-1.68;89.44;99737.20;87064;1295;22476;-75
2022/11/30 02:37:43;;;;;;;98.00;47.20;;;;;;;-1.66;89.54;99737.58;87970;1308;22992;-76
2022/11/30 02:39:44;;;;;;;80.40;42.70;;;;;;;-1.67;89.54;99735.84;88161;1293;22525;-76
2022/11/30 02:41:45;;;;;;;72.10;37.70;;;;;;;-1.67;89.53;99733.42;87541;1297;98947;-75
2022/11/30 02:43:46;;;;;;;84.40;42.40;;;;;;;-1.71;89.37;99734.58;87906;1293;22703;-76
2022/11/30 02:45:55;;;;;;;81.80;37.90;;;;;;;-1.72;89.41;99737.14;87650;1279;22496;-74
2022/11/30 02:48:07;;;;;;;82.80;39.50;;;;;;;-1.74;89.39;99735.05;87238;1309;99460;-75
2022/11/30 02:50:21;;;;;;;73.50;38.60;;;;;;;-1.75;89.36;99734.18;87146;1295;22480;-74
2022/11/30 02:52:26;;;;;;;74.20;39.10;;;;;;;-1.78;89.26;99731.05;86826;1300;22533;-75
2022/11/30 02:54:26;;;;;;;77.80;41.40;;;;;;;-1.78;89.26;99729.48;86659;1305;98560;-74
2022/11/30 02:56:28;;;;;;;91.60;42.10;;;;;;;-1.78;89.46;99730.87;87200;1293;22777;-74
2022/11/30 02:58:30;;;;;;;79.30;40.40;;;;;;;-1.78;89.47;99733.97;87382;1306;22470;-76
2022/11/30 03:00:31;;;;;;;64.60;33.20;;;;;;;-1.78;89.49;99732.76;87301;1309;98280;-75
2022/11/30 03:02:33;;;;;;;86.40;39.20;;;;;;;-1.80;89.38;99732.73;87299;1281;22480;-75
2022/11/30 03:04:34;;;;;;;;;;;;;;;-1.81;89.34;99735.82;86913;1301;22506;-74
2022/11/30 03:06:35;;;;;;;62.80;34.00;;;;;;;-1.83;89.43;99737.16;86754;1289;84761;-75
2022/11/30 03:08:36;;;;;;;73.70;39.40;;;;;;;-1.82;89.37;99740.96;86757;1312;23777;-75
2022/11/30 03:10:37;;;;;;;77.50;40.80;;;;;;;-1.87;89.45;99728.49;86882;1309;22584;-75
2022/11/30 03:12:38;;;;;;;77.40;41.70;;;;;;;-1.80;89.51;99739.95;86738;1305;98480;-75
2022/11/30 03:14:39;;;;;;;64.10;31.70;;;;;;;-1.79;89.48;99743.77;86592;1289;24361;-76
2022/11/30 03:16:40;;;;;;;84.70;39.30;;;;;;;-1.79;89.46;99742.73;86924;1287;24267;-75
2022/11/30 03:18:41;;;;;;;76.80;40.30;;;;;;;-1.79;89.42;99746.88;86766;1312;99195;-74
2022/11/30 03:20:42;;;;;;;77.10;40.50;;;;;;;-1.79;89.48;99743.60;86701;1295;24498;-76
2022/11/30 03:22:43;;;;;;;78.80;40.90;;;;;;;-1.78;89.43;99743.96;86888;1287;23039;-75
2022/11/30 03:24:44;;;;;;;74.70;40.00;;;;;;;-1.78;89.43;99743.79;86757;1302;98661;-75
2022/11/30 03:26:45;;;;;;;70.90;38.30;;;;;;;-1.89;89.45;99731.06;86866;1289;23797;-76
2022/11/30 03:28:46;;;;;;;75.40;40.70;;;;;;;-1.78;89.40;99749.83;87157;1293;23920;-75
2022/11/30 03:30:48;;;;;;;69.40;37.60;;;;;;;-1.77;89.48;99747.58;86978;1309;98237;-75
2022/11/30 03:32:50;;;;;;;71.70;40.60;;;;;;;-1.77;89.41;99748.27;86889;1287;22461;-75
2022/11/30 03:34:52;;;;;;;60.50;32.80;;;;;;;-1.78;89.37;99752.59;86742;1295;22479;-75
2022/11/30 03:36:53;;;;;;;;;;;;;;;-1.79;89.44;99755.48;86832;1309;98049;-74
2022/11/30 03:38:54;;;;;;;70.00;35.80;;;;;;;-1.81;89.37;99757.37;86807;1284;26046;-74
2022/11/30 03:41:20;;;;;;;71.20;39.40;;;;;;;-1.81;89.31;99759.94;86646;1304;22451;-77
2022/11/30 03:43:21;;;;;;;76.20;39.60;;;;;;;-1.80;89.36;99765.12;86669;1309;98680;-76
2022/11/30 03:45:22;;;;;;;80.20;40.50;;;;;;;-1.81;89.40;99761.66;86635;1280;22532;-75
2022/11/30 03:47:23;;;;;;;80.50;41.20;;;;;;;-1.82;89.41;99768.37;86872;1280;22484;-75
2022/11/30 03:49:24;;;;;;;72.00;36.50;;;;;;;-1.83;89.42;99764.72;86592;1288;99388;-75
2022/11/30 03:51:25;;;;;;;81.00;43.00;;;;;;;-1.85;89.30;99763.50;86548;1286;22485;-77
2022/11/30 03:53:26;;;;;;;82.60;42.10;;;;;;;-1.85;89.35;99761.60;86842;1285;22500;-75
2022/11/30 03:55:27;;;;;;;86.70;44.60;;;;;;;-1.85;89.43;99761.77;86504;1297;98566;-75
2022/11/30 03:57:28;;;;;;;81.70;41.00;;;;;;;-1.86;89.47;99759.69;86827;1282;22493;-74
2022/11/30 03:59:29;;;;;;;95.00;47.30;;;;;;;-1.87;89.48;99763.80;86682;1292;22544;-75
2022/11/30 04:01:30;;;;;;;86.20;43.40;;;;;;;-1.85;89.38;99759.02;86680;1288;98082;-76
2022/11/30 04:03:32;;;;;;;92.70;45.80;;;;;;;-1.87;89.44;99755.20;86855;1309;22487;-75
2022/11/30 04:05:33;;;;;;;88.40;45.60;;;;;;;-1.87;89.32;99762.26;86556;1282;22506;-75
2022/11/30 04:07:34;;;;;;;81.40;42.60;;;;;;;-1.87;89.33;99760.71;86697;1286;97888;-76
2022/11/30 04:09:35;;;;;;;82.90;40.60;;;;;;;-1.87;89.38;99767.77;86772;1285;22512;-75
2022/11/30 04:11:36;;;;;;;87.70;42.30;;;;;;;-1.87;89.37;99769.84;86645;1286;23809;-74
2022/11/30 04:13:38;;;;;;;81.60;39.30;;;;;;;-1.86;89.36;99768.64;86595;1280;98189;-76
2022/11/30 04:15:39;;;;;;;81.10;38.00;;;;;;;-1.85;89.37;99770.55;86616;1284;22521;-75
2022/11/30 04:17:40;;;;;;;88.80;40.70;;;;;;;-1.89;89.43;99770.16;86532;1281;98218;-74
2022/11/30 04:19:41;;;;;;;82.20;38.70;;;;;;;-1.89;89.29;99777.21;86351;1283;26031;-75
2022/11/30 04:21:42;;;;;;;96.20;43.30;;;;;;;-1.89;89.31;99775.33;86711;1277;22474;-75
2022/11/30 04:23:44;;;;;;;95.10;45.00;;;;;;;-1.89;89.35;99774.45;86428;1289;98411;-75
2022/11/30 04:25:46;;;;;;;;;;;;;;;-1.89;89.39;99775.32;86794;1287;25302;-74
2022/11/30 04:27:47;;;;;;;108.20;49.50;;;;;;;-1.89;89.39;99772.57;86680;1286;22575;-76
2022/11/30 04:29:49;;;;;;;91.00;45.50;;;;;;;-1.88;89.42;99772.23;86565;1286;99139;-75
2022/11/30 04:31:49;;;;;;;92.50;43.50;;;;;;;-1.88;89.46;99771.03;86696;1288;25412;-75
2022/11/30 04:33:53;;;;;;;98.60;46.80;;;;;;;-1.88;89.42;99773.44;86815;1278;22527;-75
2022/11/30 04:35:57;;;;;;;95.10;43.60;;;;;;;-1.90;89.40;99772.56;86634;1288;98246;-76
2022/11/30 04:37:59;;;;;;;96.30;43.20;;;;;;;-1.88;89.31;99773.44;86998;1277;22925;-75
2022/11/30 04:40:00;;;;;;;90.80;42.60;;;;;;;-1.88;89.33;99777.40;86771;1287;22596;-76
2022/11/30 04:42:01;;;;;;;92.00;44.60;;;;;;;-1.87;89.35;99780.17;86789;1286;99316;-75
2022/11/30 04:44:02;;;;;;;;;;;;;;;-1.87;89.42;99780.52;86638;1290;22541;-74
2022/11/30 04:46:05;;;;;;;97.90;46.10;;;;;;;-1.87;89.51;99784.47;86846;1284;22597;-75
2022/11/30 04:48:07;;;;;;;101.50;46.10;;;;;;;-1.88;89.47;99779.63;86568;1280;100222;-75
2022/11/30 04:50:08;;;;;;;90.10;40.60;;;;;;;-1.85;89.48;99781.41;86967;1280;23024;-75
2022/11/30 04:52:09;;;;;;;;;;;;;;;-1.85;89.53;99785.04;86859;1284;22602;-74
2022/11/30 04:54:10;;;;;;;99.60;46.60;;;;;;;-1.85;89.43;99784.34;86776;1294;84235;-75
2022/11/30 04:56:11;;;;;;;87.20;43.50;;;;;;;-1.85;89.46;99787.61;86818;1288;22590;-75
2022/11/30 04:58:12;;;;;;;102.70;48.00;;;;;;;-1.86;89.49;99786.57;86721;1287;22504;-75
2022/11/30 05:00:18;;;;;;;88.00;42.30;;;;;;;-1.86;89.37;99787.59;86614;1288;98210;-75
2022/11/30 05:02:19;;;;;;;100.10;46.50;;;;;;;-1.86;89.46;99792.42;86901;1286;22557;-75
2022/11/30 05:04:20;;;;;;;86.40;41.50;;;;;;;-1.84;89.43;99793.30;86922;1288;22724;-75
2022/11/30 05:06:21;;;;;;;97.70;44.40;;;;;;;-1.84;89.44;99792.62;86765;1280;98132;-75
2022/11/30 05:08:22;;;;;;;90.20;42.50;;;;;;;-1.84;89.44;99796.42;86814;1285;22514;-75
2022/11/30 05:10:27;;;;;;;97.40;46.20;;;;;;;-1.94;89.43;99781.10;86848;1296;23597;-76
2022/11/30 05:12:28;;;;;;;96.60;46.20;;;;;;;-1.85;89.27;99793.64;86881;1284;98339;-75
2022/11/30 05:14:29;;;;;;;80.90;41.30;;;;;;;-1.85;89.34;99793.30;86731;1287;22481;-74
2022/11/30 05:16:30;;;;;;;84.40;41.20;;;;;;;-1.85;89.35;99795.02;86767;1287;22637;-77
2022/11/30 05:18:32;;;;;;;87.20;42.10;;;;;;;-1.85;89.40;99791.40;86641;1286;98282;-74
2022/11/30 05:20:33;;;;;;;93.60;46.20;;;;;;;-1.84;89.36;99798.64;86795;1288;22518;-75
2022/11/30 05:22:34;;;;;;;87.90;41.90;;;;;;;-1.85;89.35;99800.01;86819;1282;22544;-75
2022/11/30 05:24:35;;;;;;;92.40;47.30;;;;;;;-1.85;89.45;99799.16;86895;1294;98167;-75
2022/11/30 05:26:37;;;;;;;94.20;43.80;;;;;;;-1.85;89.41;99803.63;86665;1294;25427;-74
2022/11/30 05:28:37;;;;;;;82.10;39.60;;;;;;;-1.87;89.34;99804.29;86919;1288;23889;-75
2022/11/30 05:30:40;;;;;;;95.90;48.50;;;;;;;-1.87;89.33;99802.56;86823;1287;98480;-75
2022/11/30 05:32:41;;;;;;;80.60;39.10;;;;;;;-1.89;89.37;99803.92;86911;1286;22480;-75
2022/11/30 05:34:42;;;;;;;87.60;42.80;;;;;;;-1.91;89.33;99806.12;87065;1283;24374;-75
2022/11/30 05:36:43;;;;;;;101.00;46.70;;;;;;;-1.92;89.27;99803.35;87163;1294;98277;-74
2022/11/30 05:38:45;;;;;;;85.00;41.80;;;;;;;-1.92;89.38;99799.89;86845;1287;22813;-76
2022/11/30 05:40:46;;;;;;;79.70;38.00;;;;;;;-1.94;89.49;99799.52;86753;1288;22496;-76
2022/11/30 05:42:53;;;;;;;100.70;45.40;;;;;;;-1.93;89.42;99799.20;86799;1287;98373;-74
2022/11/30 05:44:54;;;;;;;95.50;45.60;;;;;;;-1.91;89.39;99796.46;87094;1285;22589;-75
2022/11/30 05:46:56;;;;;;;95.70;45.00;;;;;;;-1.92;89.42;99796.81;86962;1280;22477;-76
2022/11/30 05:48:56;;;;;;;108.30;49.20;;;;;;;-1.92;89.44;99795.43;86560;1291;98251;-76
2022/11/30 05:51:09;;;;;;;83.90;40.90;;;;;;;-1.93;89.39;99797.14;86736;1293;22755;-76
2022/11/30 05:53:10;;;;;;;94.50;49.80;;;;;;;-1.97;89.29;99794.66;86756;1286;22497;-77
2022/11/30 05:55:11;;;;;;;81.20;38.30;;;;;;;-1.97;89.41;99794.84;86643;1294;99017;-75
2022/11/30 05:57:12;;;;;;;102.90;47.40;;;;;;;-1.98;89.44;99799.28;86735;1286;22460;-75
2022/11/30 05:59:13;;;;;;;90.20;40.70;;;;;;;-1.99;89.32;99801.52;86895;1283;22502;-75
2022/11/30 06:01:23;;;;;;;96.30;46.90;;;;;;;-2.03;89.41;99794.56;86667;1287;98248;-76
2022/11/30 06:03:26;;;;;;;93.00;43.90;;;;;;;-2.00;89.29;99804.24;86870;1288;22828;-75
2022/11/30 06:05:27;;;;;;;100.10;47.30;;;;;;;-2.00;89.32;99802.54;86662;1293;22488;-76
2022/11/30 06:07:28;;;;;;;84.40;43.20;;;;;;;-2.00;89.42;99800.14;86836;1285;99738;-75
2022/11/30 06:09:29;;;;;;;77.90;40.60;;;;;;;-2.00;89.43;99804.09;86888;1277;22513;-76
2022/11/30 06:11:30;;;;;;;100.20;46.50;;;;;;;-2.00;89.43;99805.46;87140;1285;22516;-75
2022/11/30 06:13:34;;;;;;;87.80;43.80;;;;;;;-1.99;89.47;99812.54;87269;1296;98664;-76
2022/11/30 06:15:39;;;;;;;98.20;45.50;;;;;;;-1.99;89.51;99816.67;86829;1281;24195;-75
2022/11/30 06:17:40;;;;;;;91.70;45.00;;;;;;;-2.01;89.35;99820.44;86813;1285;99343;-75
2022/11/30 06:19:42;;;;;;;88.30;41.40;;;;;;;-2.02;89.36;99825.76;86330;1288;23393;-76
2022/11/30 06:21:42;;;;;;;75.90;38.70;;;;;;;-2.03;89.36;99823.84;86395;1288;25452;-75
2022/11/30 06:23:43;;;;;;;90.40;42.30;;;;;;;-2.04;89.27;99823.82;86563;1286;98816;-75
2022/11/30 06:25:44;;;;;;;82.00;40.50;;;;;;;-2.04;89.47;99825.02;86779;1286;22546;-75
2022/11/30 06:27:45;;;;;;;86.40;40.90;;;;;;;-2.05;89.41;99824.31;86524;1288;22607;-73
2022/11/30 06:29:46;;;;;;;80.50;41.50;;;;;;;-2.05;89.34;99824.15;86320;1280;99334;-74
2022/11/30 06:31:47;;;;;;;79.40;41.70;;;;;;;-2.06;89.33;99821.55;86265;1280;22526;-74
2022/11/30 06:33:49;;;;;;;;;;;;;;;-2.06;89.35;99825.86;86300;1281;22913;-74
2022/11/30 06:35:50;;;;;;;99.10;45.20;;;;;;;-2.09;89.44;99827.02;86255;1277;85068;-74
2022/11/30 06:37:51;;;;;;;83.90;42.80;;;;;;;-2.10;89.38;99829.08;86378;1287;22441;-74
2022/11/30 06:39:52;;;;;;;89.10;44.40;;;;;;;-2.10;89.33;99829.06;86324;1285;22745;-74
2022/11/30 06:41:53;;;;;;;91.10;44.10;;;;;;;-2.12;89.40;99831.27;86029;1287;99658;-74
2022/11/30 06:43:54;;;;;;;91.40;44.20;;;;;;;-2.13;89.37;99832.98;86426;1278;22484;-74
2022/11/30 06:45:54;;;;;;;51.80;25.20;;;;;;;-2.13;89.48;99831.06;86185;1280;22488;-74
2022/11/30 06:47:56;;;;;;;67.40;31.00;;;;;;;-2.15;89.26;99832.61;86223;1277;99523;-73
2022/11/30 06:49:57;;;;;;;48.50;23.60;;;;;;;-2.18;89.23;99833.41;86171;1287;22501;-72
2022/11/30 06:51:58;;;;;;;77.60;40.50;;;;;;;-2.21;89.23;99836.45;86258;1280;26009;-73
2022/11/30 06:53:59;;;;;;;76.80;40.80;;;;;;;-2.23;89.33;99838.84;86095;1284;99237;-72
2022/11/30 06:56:07;;;;;;;77.00;38.70;;;;;;;-2.23;89.33;99837.80;86348;1287;22553;-74
2022/11/30 06:58:09;;;;;;;86.50;41.10;;;;;;;-2.22;89.34;99833.16;86252;1287;24221;-73
2022/11/30 07:00:11;;;;;;;73.30;39.40;;;;;;;-2.22;89.40;99832.66;86110;1287;98721;-73
2022/11/30 07:02:14;;;;;;;83.60;40.30;;;;;;;-2.21;89.43;99834.73;86520;1277;23028;-74
2022/11/30 07:04:16;;;;;;;84.00;40.00;;;;;;;-2.19;89.40;99838.39;86651;1281;22455;-72
2022/11/30 07:06:17;;;;;;;74.60;38.20;;;;;;;-2.19;89.42;99836.30;86360;1288;98265;-74
2022/11/30 07:08:17;;;;;;;63.80;34.80;;;;;;;-2.21;89.38;99836.80;86380;1280;22501;-74
2022/11/30 07:10:21;;;;;;;82.50;40.70;;;;;;;-2.20;89.42;99839.57;86268;1286;24378;-73
2022/11/30 07:12:23;;;;;;;77.50;41.20;;;;;;;-2.18;89.47;99839.77;86410;1286;99162;-73
2022/11/30 07:14:24;;;;;;;92.10;48.30;;;;;;;-2.17;89.43;99843.39;86289;1288;24627;-74
2022/11/30 07:16:25;;;;;;;100.20;47.60;;;;;;;-2.16;89.46;99841.69;86500;1277;24263;-73
2022/11/30 07:18:26;;;;;;;88.50;45.60;;;;;;;-2.15;89.31;99841.90;86168;1281;99596;-73
2022/11/30 07:20:27;;;;;;;79.80;44.40;;;;;;;-2.14;89.49;99840.53;86646;1286;26496;-73
2022/11/30 07:22:28;;;;;;;80.40;43.70;;;;;;;-2.14;89.46;99842.08;86549;1288;22514;-73
2022/11/30 07:26:49;;;;;;;83.00;42.10;;;;;;;-2.17;89.39;99844.95;86318;1280;22647;-72
2022/11/30 07:28:56;;;;;;;76.20;33.80;;;;;;;-2.17;89.41;99845.46;86379;1286;22488;-72
2022/11/30 07:30:57;;;;;;;82.70;43.10;;;;;;;-2.17;89.35;99840.83;86317;1294;99248;-72
2022/11/30 07:32:59;;;;;;;81.80;45.90;;;;;;;-2.17;89.39;99839.46;86405;1282;23096;-74
2022/11/30 07:35:00;;;;;;;71.00;35.60;;;;;;;-2.15;89.37;99841.89;86335;1280;22470;-71
2022/11/30 07:37:01;;;;;;;83.60;41.30;;;;;;;-2.14;89.49;99837.77;86564;1284;99652;-73
2022/11/30 07:39:02;;;;;;;80.90;44.60;;;;;;;-2.15;89.58;99833.96;86529;1281;22892;-73
2022/11/30 07:41:04;;;;;;;74.70;40.50;;;;;;;-2.11;89.47;99842.13;86507;1280;22611;-73
2022/11/30 07:43:06;;;;;;;73.10;36.80;;;;;;;-2.11;89.54;99846.95;86441;1280;98367;-72
2022/11/30 07:45:07;;;;;;;81.30;40.70;;;;;;;-2.11;89.38;99846.79;86381;1287;22568;-73
2022/11/30 07:47:09;;;;;;;72.80;37.20;;;;;;;-2.10;89.29;99851.45;86422;1287;22959;-73
2022/11/30 07:49:17;;;;;;;69.60;36.30;;;;;;;-2.11;89.37;99847.14;86533;1277;99148;-73
2022/11/30 07:51:21;;;;;;;72.80;36.70;;;;;;;-2.09;89.48;99851.96;86625;1278;24545;-73
2022/11/30 07:53:22;;;;;;;58.40;29.10;;;;;;;-2.10;89.31;99852.31;86427;1288;24731;-71
2022/11/30 07:55:23;;;;;;;49.80;25.80;;;;;;;-2.11;89.40;99857.27;86324;1280;98903;-72
2022/11/30 07:57:24;;;;;;;73.60;42.50;;;;;;;-2.13;89.39;99857.77;86273;1280;24375;-73
2022/11/30 07:59:25;;;;;;;82.70;42.80;;;;;;;-2.13;89.47;99860.33;86342;1278;24241;-72
2022/11/30 08:01:48;;;;;;;79.50;43.70;;;;;;;-2.15;89.43;99861.16;86226;1285;98676;-73
2022/11/30 08:03:51;;;;;;;84.20;42.00;;;;;;;-2.14;89.46;99859.81;86400;1277;22509;-73
2022/11/30 08:05:52;;;;;;;77.50;40.40;;;;;;;-2.13;89.30;99862.06;86180;1280;100025;-72
2022/11/30 08:07:53;;;;;;;79.90;43.60;;;;;;;-2.14;89.49;99854.67;86273;1284;22548;-73
2022/11/30 08:09:54;;;;;;;;;;;;;;;-2.10;89.43;99863.50;86180;1280;23700;-73
2022/11/30 08:11:55;;;;;;;89.00;46.30;;;;;;;-2.09;89.43;99866.62;86362;1285;85773;-73
2022/11/30 08:13:56;;;;;;;90.70;44.50;;;;;;;-2.08;89.56;99864.58;86227;1285;25550;-72
2022/11/30 08:16:02;;;;;;;114.00;50.90;;;;;;;-2.08;89.45;99865.95;86166;1280;22487;-72
2022/11/30 08:18:05;;;;;;;90.00;47.30;;;;;;;-2.06;89.39;99869.07;86436;1285;99673;-72
2022/11/30 08:20:09;;;;;;;64.00;32.30;;;;;;;-2.06;89.40;99868.55;86118;1280;22578;-73
2022/11/30 08:22:10;;;;;;;66.60;29.80;;;;;;;-2.07;89.46;99868.38;86478;1284;28011;-72
2022/11/30 08:24:12;;;;;;;74.40;37.60;;;;;;;-2.08;89.41;99867.67;86159;1287;99345;-74
2022/11/30 08:26:16;;;;;;;54.30;28.40;;;;;;;-2.08;89.43;99869.04;86085;1287;22485;-72
2022/11/30 08:28:17;;;;;;;81.80;41.30;;;;;;;-2.25;89.39;99842.77;87340;1285;25525;-71
2022/11/30 08:30:18;;;;;;;79.80;42.70;;;;;;;-2.09;89.38;99867.82;86089;1288;99266;-72
2022/11/30 08:32:19;;;;;;;85.20;45.30;;;;;;;-2.10;89.37;99868.33;86167;1289;22662;-73
2022/11/30 08:34:20;;;;;;;89.00;47.30;;;;;;;-2.08;89.36;99869.40;86458;1285;22476;-74
2022/11/30 08:36:22;;;;;;;91.60;48.20;;;;;;;-2.07;89.45;99873.55;86221;1280;98213;-72
2022/11/30 08:38:23;;;;;;;84.80;42.80;;;;;;;-2.08;89.46;99873.87;86215;1283;25384;-71
2022/11/30 08:40:24;;;;;;;94.30;50.20;;;;;;;-2.08;89.23;99870.95;86197;1280;22504;-73
2022/11/30 08:42:27;;;;;;;102.90;50.60;;;;;;;-2.06;89.45;99872.52;86174;1280;100033;-71
2022/11/30 08:44:28;;;;;;;70.70;36.90;;;;;;;-2.04;89.47;99878.93;86385;1288;22492;-72
2022/11/30 08:46:29;;;;;;;69.50;39.90;;;;;;;-2.05;89.53;99876.84;86179;1290;22535;-72
2022/11/30 08:48:30;;;;;;;69.60;41.00;;;;;;;-2.06;89.53;99879.24;86187;1287;99333;-73
2022/11/30 08:50:31;;;;;;;70.40;37.00;;;;;;;-2.01;89.40;99881.04;86389;1285;25255;-73
2022/11/30 08:52:32;;;;;;;67.50;37.90;;;;;;;-2.01;89.33;99882.43;86250;1281;22485;-72
2022/11/30 08:54:33;;;;;;;54.70;26.90;;;;;;;-2.00;89.47;99881.91;86185;1283;98301;-72
2022/11/30 08:56:34;;;;;;;79.00;42.00;;;;;;;-1.99;89.48;99883.67;86114;1287;22517;-73
2022/11/30 08:58:37;;;;;;;93.40;49.10;;;;;;;-1.97;89.46;99880.25;86096;1280;24270;-72
2022/11/30 09:00:38;;;;;;;78.20;43.90;;;;;;;-1.96;89.35;99878.02;86248;1277;99331;-71
2022/11/30 09:02:39;;;;;;;69.90;37.50;;;;;;;-1.96;89.51;99874.77;86106;1287;22500;-73
2022/11/30 09:04:40;;;;;;;66.50;33.10;;;;;;;-1.95;89.43;99875.64;86150;1284;25584;-72
2022/11/30 09:06:41;;;;;;;70.70;37.70;;;;;;;-1.95;89.44;99874.45;86000;1287;99222;-72
2022/11/30 09:08:44;;;;;;;60.10;34.90;;;;;;;-1.92;89.40;99872.93;86103;1287;24246;-72
2022/11/30 09:10:45;;;;;;;21.50;13.90;;;;;;;-1.93;89.42;99879.13;86419;1283;22493;-72
2022/11/30 09:12:46;;;;;;;61.60;32.70;;;;;;;-1.93;89.32;99881.18;86117;1281;99723;-72
2022/11/30 09:14:47;;;;;;;61.10;33.60;;;;;;;-1.92;89.34;99885.17;86105;1284;22635;-71
2022/11/30 09:16:48;;;;;;;79.20;41.00;;;;;;;-1.90;89.34;99884.70;86194;1280;22511;-72
2022/11/30 09:18:50;;;;;;;77.40;41.40;;;;;;;-1.88;89.31;99883.85;86109;1288;98119;-73
2022/11/30 09:20:51;;;;;;;60.50;33.30;;;;;;;-1.86;89.45;99885.10;85966;1282;22522;-74
2022/11/30 09:22:52;;;;;;;58.90;32.00;;;;;;;-1.85;89.34;99885.63;86342;1284;22556;-73
2022/11/30 09:24:53;;;;;;;;;;;;;;;-1.87;89.30;99885.08;85908;1283;99254;-73
2022/11/30 09:26:58;;;;;;;48.60;25.00;;;;;;;-1.88;89.37;99886.61;86256;1286;22496;-71
2022/11/30 09:29:00;;;;;;;44.50;24.80;;;;;;;-1.86;89.31;99883.88;86069;1287;24247;-73